Time;durP1;ratioP1;P1;durP2;ratioP2;P2;SDS_P1;SDS_P2;PMS_P1;PMS_P2;Temp;Humidity;BMP_temperature;BMP_pressure;BME280_temperature;BME280_humidity;BME280_pressure;Samples;Min_cycle;Max_cycle;Signal;HPM_P1;HPM_P2
2021/09/01 00:01:44;;;;;;;11.23;6.68;;;14.70;99.90;;;;;;5059485;28;20574;-87
2021/09/01 00:04:12;;;;;;;7.13;6.43;;;14.60;99.90;;;;;;5063680;28;20616;-87
2021/09/01 00:06:39;;;;;;;7.47;6.63;;;14.60;99.90;;;;;;5059128;28;20204;-87
2021/09/01 00:09:06;;;;;;;8.30;6.30;;;14.60;99.90;;;;;;5067742;28;20228;-87
2021/09/01 00:11:33;;;;;;;8.30;6.55;;;14.60;99.90;;;;;;5063799;28;20628;-87
2021/09/01 00:14:00;;;;;;;9.25;6.35;;;14.60;99.90;;;;;;5059601;28;20324;-86
2021/09/01 00:16:27;;;;;;;7.05;6.35;;;14.60;99.90;;;;;;5067245;28;20284;-87
2021/09/01 00:18:54;;;;;;;10.10;6.70;;;14.60;99.90;;;;;;5070539;28;20232;-86
2021/09/01 00:21:22;;;;;;;7.20;6.45;;;14.50;99.90;;;;;;5070888;28;20189;-87
2021/09/01 00:23:50;;;;;;;7.20;6.30;;;14.40;99.90;;;;;;5071840;28;20216;-87
2021/09/01 00:26:17;;;;;;;6.97;6.25;;;14.30;99.90;;;;;;5075828;28;20194;-86
2021/09/01 00:28:44;;;;;;;6.95;6.28;;;14.20;99.90;;;;;;5075923;28;20243;-88
2021/09/01 00:31:12;;;;;;;7.28;6.53;;;14.00;99.90;;;;;;5076514;28;20560;-87
2021/09/01 00:33:39;;;;;;;7.40;6.70;;;14.00;99.90;;;;;;5067149;28;20229;-86
2021/09/01 00:36:06;;;;;;;7.47;6.45;;;13.90;99.90;;;;;;5079026;28;20219;-89
2021/09/01 00:38:34;;;;;;;9.20;6.78;;;13.90;99.90;;;;;;5076221;28;20738;-88
2021/09/01 00:41:01;;;;;;;8.85;6.68;;;13.90;99.90;;;;;;5080447;28;20205;-86
2021/09/01 00:43:28;;;;;;;11.98;7.70;;;13.80;99.90;;;;;;5069467;28;20201;-87
2021/09/01 00:45:55;;;;;;;8.50;7.22;;;13.60;99.90;;;;;;5080692;28;20211;-86
2021/09/01 00:48:23;;;;;;;7.75;6.88;;;13.50;99.90;;;;;;5074532;28;20197;-86
2021/09/01 00:50:52;;;;;;;8.30;7.00;;;13.50;99.90;;;;;;5077534;28;20212;-89
2021/09/01 00:53:19;;;;;;;9.20;7.43;;;13.50;99.90;;;;;;5080847;28;20273;-85
2021/09/01 00:55:48;;;;;;;9.65;6.85;;;13.40;99.90;;;;;;5072799;28;20205;-85
2021/09/01 00:58:17;;;;;;;8.07;6.53;;;13.40;99.90;;;;;;5080967;28;20244;-85
2021/09/01 01:01:12;;;;;;;7.90;6.90;;;13.40;99.90;;;;;;5066772;28;20217;-85
2021/09/01 01:03:39;;;;;;;8.23;6.95;;;13.40;99.90;;;;;;5082449;28;20232;-87
2021/09/01 01:06:06;;;;;;;8.65;6.65;;;13.40;99.90;;;;;;5080723;28;20269;-87
2021/09/01 01:09:01;;;;;;;9.68;7.63;;;13.40;99.90;;;;;;5060828;28;20239;-85
2021/09/01 01:11:29;;;;;;;8.27;6.80;;;13.40;99.90;;;;;;5081497;28;20201;-86
2021/09/01 01:13:57;;;;;;;8.27;6.57;;;13.30;99.90;;;;;;5082993;28;20234;-86
2021/09/01 01:16:25;;;;;;;9.23;6.28;;;13.30;99.90;;;;;;5078999;28;20201;-86
2021/09/01 01:19:31;;;;;;;8.75;6.60;;;13.30;99.90;;;;;;5069717;28;20238;-85
2021/09/01 01:21:58;;;;;;;6.90;6.25;;;13.20;99.90;;;;;;5058764;28;20193;-86
2021/09/01 01:24:51;;;;;;;7.80;6.78;;;13.10;99.90;;;;;;5088807;28;20233;-86
2021/09/01 01:27:25;;;;;;;7.68;6.55;;;13.00;99.90;;;;;;5081862;28;20231;-87
2021/09/01 01:29:53;;;;;;;7.70;6.72;;;12.90;99.90;;;;;;5088366;28;20231;-85
2021/09/01 01:32:21;;;;;;;7.10;6.40;;;12.80;99.90;;;;;;5086628;28;20227;-86
2021/09/01 01:38:31;;;;;;;7.40;6.50;;;12.70;99.90;;;;;;5032931;28;20199;-86
2021/09/01 01:41:01;;;;;;;9.02;6.80;;;12.70;99.90;;;;;;5044372;28;20229;-86
2021/09/01 01:43:31;;;;;;;9.27;6.57;;;12.70;99.90;;;;;;5083314;28;20193;-85
2021/09/01 01:45:58;;;;;;;7.80;6.68;;;12.80;99.90;;;;;;5081099;28;20212;-85
2021/09/01 01:48:25;;;;;;;7.70;6.90;;;12.70;99.90;;;;;;5079045;28;20232;-86
2021/09/01 01:50:52;;;;;;;7.32;6.22;;;12.60;99.90;;;;;;5085352;28;20217;-85
2021/09/01 01:53:19;;;;;;;7.30;6.57;;;12.50;99.90;;;;;;5089044;28;20232;-85
2021/09/01 01:55:46;;;;;;;7.18;6.47;;;12.50;99.90;;;;;;5074274;28;20209;-86
2021/09/01 01:58:13;;;;;;;7.07;5.70;;;12.50;99.90;;;;;;5070513;28;20204;-85
2021/09/01 02:00:41;;;;;;;7.55;6.65;;;12.50;99.90;;;;;;5079555;28;20274;-85
2021/09/01 02:03:08;;;;;;;7.47;6.50;;;12.50;99.90;;;;;;5078839;28;20205;-86
2021/09/01 02:05:35;;;;;;;7.68;6.68;;;12.40;99.90;;;;;;5083306;28;20235;-85
2021/09/01 02:08:03;;;;;;;6.80;6.07;;;12.30;99.90;;;;;;5072192;28;20248;-85
2021/09/01 02:10:30;;;;;;;7.07;6.38;;;12.30;99.90;;;;;;5074020;28;20701;-86
2021/09/01 02:12:57;;;;;;;6.93;6.22;;;12.20;99.90;;;;;;5080180;28;20197;-85
2021/09/01 02:15:24;;;;;;;8.55;6.45;;;12.20;99.90;;;;;;5077318;28;20255;-86
2021/09/01 02:17:53;;;;;;;7.07;6.38;;;12.10;99.90;;;;;;5066172;28;20236;-86
2021/09/01 02:20:20;;;;;;;7.15;5.90;;;12.20;99.90;;;;;;5076142;28;20282;-87
2021/09/01 02:22:47;;;;;;;7.85;6.15;;;12.30;99.90;;;;;;5076031;28;20236;-85
2021/09/01 02:25:15;;;;;;;6.85;6.15;;;12.20;99.90;;;;;;5069496;28;20229;-87
2021/09/01 02:27:42;;;;;;;7.65;6.28;;;12.20;99.90;;;;;;5080257;28;20224;-86
2021/09/01 02:30:12;;;;;;;7.43;6.57;;;12.20;99.90;;;;;;5073969;28;20229;-86
2021/09/01 02:32:39;;;;;;;7.70;6.03;;;12.20;99.90;;;;;;5076364;28;20214;-86
2021/09/01 02:35:09;;;;;;;8.48;6.43;;;12.10;99.90;;;;;;5070988;28;20260;-85
2021/09/01 02:37:36;;;;;;;6.88;6.10;;;12.00;99.90;;;;;;5077984;28;20202;-88
2021/09/01 02:40:04;;;;;;;7.60;6.18;;;12.00;99.90;;;;;;5084318;28;20254;-85
2021/09/01 02:42:31;;;;;;;8.82;6.20;;;12.00;99.90;;;;;;5065124;28;20260;-86
2021/09/01 02:45:00;;;;;;;6.97;6.15;;;12.00;99.90;;;;;;5077664;28;20308;-85
2021/09/01 02:47:27;;;;;;;7.53;6.82;;;12.00;99.90;;;;;;5073858;28;20197;-85
2021/09/01 02:49:54;;;;;;;8.70;6.35;;;12.00;99.90;;;;;;5080503;28;20312;-86
2021/09/01 02:52:22;;;;;;;9.32;6.70;;;11.90;99.90;;;;;;5078192;28;20204;-86
2021/09/01 02:54:49;;;;;;;8.18;6.55;;;11.80;99.90;;;;;;5071526;28;20237;-85
2021/09/01 02:57:16;;;;;;;8.07;7.18;;;11.80;99.90;;;;;;5070346;28;20206;-86
2021/09/01 02:59:43;;;;;;;9.93;7.18;;;11.70;99.90;;;;;;5071926;28;20236;-85
2021/09/01 03:02:10;;;;;;;9.68;7.85;;;11.70;99.90;;;;;;5069627;28;20225;-85
2021/09/01 03:04:37;;;;;;;7.88;7.07;;;11.60;99.90;;;;;;5070363;28;20252;-86
2021/09/01 03:07:04;;;;;;;8.02;7.15;;;11.60;99.90;;;;;;5072743;28;20209;-85
2021/09/01 03:09:32;;;;;;;11.02;7.07;;;11.60;99.90;;;;;;5075803;28;20221;-87
2021/09/01 03:12:02;;;;;;;8.90;6.93;;;11.70;99.90;;;;;;5073311;28;20664;-85
2021/09/01 03:14:30;;;;;;;7.80;6.45;;;11.80;99.90;;;;;;5071806;28;20239;-86
2021/09/01 03:16:57;;;;;;;7.03;6.30;;;11.80;99.90;;;;;;5075802;28;20265;-87
2021/09/01 03:19:24;;;;;;;8.65;6.35;;;11.70;99.90;;;;;;5074982;28;20249;-86
2021/09/01 03:21:52;;;;;;;9.60;7.28;;;11.70;99.90;;;;;;5069434;28;20267;-86
2021/09/01 03:24:19;;;;;;;7.40;6.63;;;11.60;99.90;;;;;;5061727;28;20289;-86
2021/09/01 03:26:47;;;;;;;8.52;6.40;;;11.60;99.90;;;;;;5076660;28;20204;-86
2021/09/01 03:29:14;;;;;;;8.98;6.90;;;11.60;99.90;;;;;;5079540;28;20285;-86
2021/09/01 03:31:41;;;;;;;7.35;6.50;;;11.60;99.90;;;;;;5071657;28;20220;-87
2021/09/01 03:34:08;;;;;;;8.68;6.70;;;11.60;99.90;;;;;;5079615;28;20308;-85
2021/09/01 03:36:35;;;;;;;12.00;6.35;;;11.50;99.90;;;;;;5080257;28;20280;-88
2021/09/01 03:39:03;;;;;;;8.23;6.45;;;11.40;99.90;;;;;;5077774;28;20720;-85
2021/09/01 03:41:29;;;;;;;8.13;6.25;;;11.30;99.90;;;;;;5080051;28;20311;-86
2021/09/01 03:43:58;;;;;;;7.15;6.45;;;11.30;99.90;;;;;;5080083;28;20278;-85
2021/09/01 03:46:25;;;;;;;7.78;6.38;;;11.30;99.90;;;;;;5075096;28;20205;-85
2021/09/01 03:48:52;;;;;;;7.25;6.50;;;11.20;99.90;;;;;;5067665;28;20285;-85
2021/09/01 03:51:19;;;;;;;7.18;6.47;;;11.10;99.90;;;;;;5068937;28;20309;-86
2021/09/01 03:53:46;;;;;;;8.40;6.90;;;11.10;99.90;;;;;;5078164;28;20289;-86
2021/09/01 03:56:13;;;;;;;8.32;6.63;;;11.00;99.90;;;;;;5068558;28;20728;-86
2021/09/01 03:58:40;;;;;;;8.68;6.60;;;11.00;99.90;;;;;;5078518;28;20288;-88
2021/09/01 04:01:09;;;;;;;8.93;7.03;;;10.90;99.90;;;;;;5078154;28;20233;-86
2021/09/01 04:03:38;;;;;;;7.45;5.88;;;10.90;99.90;;;;;;5074428;28;20234;-86
2021/09/01 04:06:05;;;;;;;8.38;6.32;;;10.90;99.90;;;;;;5083665;28;20197;-85
2021/09/01 04:08:33;;;;;;;7.53;6.72;;;10.90;99.90;;;;;;5076685;28;20272;-88
2021/09/01 04:10:59;;;;;;;6.70;6.00;;;10.90;99.90;;;;;;5074026;28;20672;-85
2021/09/01 04:13:27;;;;;;;7.20;6.22;;;11.00;99.90;;;;;;5078899;28;20288;-87
2021/09/01 04:15:54;;;;;;;6.65;5.68;;;11.10;99.90;;;;;;5076299;28;20236;-85
2021/09/01 04:18:22;;;;;;;6.28;5.72;;;11.10;99.90;;;;;;5071143;28;20198;-87
2021/09/01 04:20:49;;;;;;;7.03;6.28;;;11.10;99.90;;;;;;5079351;28;20262;-86
2021/09/01 04:23:16;;;;;;;6.93;6.22;;;11.00;99.90;;;;;;5070162;28;20269;-85
2021/09/01 04:25:43;;;;;;;7.28;5.50;;;11.00;99.90;;;;;;5074466;28;20235;-86
2021/09/01 04:28:10;;;;;;;5.93;5.32;;;10.90;99.90;;;;;;5079772;28;20667;-87
2021/09/01 04:30:38;;;;;;;6.00;5.40;;;10.90;99.90;;;;;;5077985;28;20312;-85
2021/09/01 04:33:05;;;;;;;5.72;5.13;;;11.00;99.90;;;;;;5081554;28;20227;-86
2021/09/01 04:35:33;;;;;;;6.22;5.63;;;11.10;99.90;;;;;;5075689;28;20256;-87
2021/09/01 04:38:00;;;;;;;9.80;6.15;;;11.30;99.90;;;;;;5079153;28;20288;-86
2021/09/01 04:40:27;;;;;;;7.13;6.18;;;11.40;99.90;;;;;;5076706;28;20308;-85
2021/09/01 04:42:54;;;;;;;7.75;5.95;;;11.40;99.90;;;;;;5078303;28;20221;-87
2021/09/01 04:45:21;;;;;;;7.15;5.85;;;11.40;99.90;;;;;;5063162;28;20301;-85
2021/09/01 04:47:48;;;;;;;7.25;5.47;;;11.40;99.90;;;;;;5071723;28;20225;-86
2021/09/01 04:50:15;;;;;;;7.20;5.72;;;11.40;99.90;;;;;;5080570;28;20288;-85
2021/09/01 04:52:43;;;;;;;6.35;5.20;;;11.40;99.90;;;;;;5072196;28;20225;-87
2021/09/01 04:55:12;;;;;;;5.35;4.85;;;11.40;99.90;;;;;;5080084;28;20240;-85
2021/09/01 04:57:39;;;;;;;5.20;4.70;;;11.40;99.90;;;;;;5081209;28;20197;-86
2021/09/01 05:00:08;;;;;;;7.55;4.90;;;11.40;99.90;;;;;;5064498;28;20229;-86
2021/09/01 05:02:35;;;;;;;6.03;4.68;;;11.40;99.90;;;;;;5077301;28;20213;-86
2021/09/01 05:05:02;;;;;;;4.97;4.47;;;11.40;99.90;;;;;;5071533;28;20228;-86
2021/09/01 05:07:29;;;;;;;8.18;4.65;;;11.50;99.90;;;;;;5090646;28;20261;-86
2021/09/01 05:09:58;;;;;;;11.57;5.00;;;11.50;99.90;;;;;;5073842;28;22207;-87
2021/09/01 05:12:27;;;;;;;5.43;4.90;;;11.50;99.90;;;;;;5075151;28;20206;-85
2021/09/01 05:14:54;;;;;;;6.90;4.75;;;11.50;99.90;;;;;;5077555;28;20229;-86
2021/09/01 05:17:21;;;;;;;5.20;4.70;;;11.50;99.90;;;;;;5070371;28;20201;-87
2021/09/01 05:19:49;;;;;;;5.05;4.60;;;11.60;99.90;;;;;;5074598;28;20284;-85
2021/09/01 05:22:18;;;;;;;4.80;4.30;;;11.70;99.90;;;;;;5075844;28;20210;-86
2021/09/01 05:24:58;;;;;;;8.77;4.75;;;11.80;99.90;;;;;;5073778;28;20312;-86
2021/09/01 05:27:32;;;;;;;8.88;5.07;;;11.80;99.90;;;;;;5074839;28;20204;-85
2021/09/01 05:30:01;;;;;;;10.35;5.38;;;11.70;99.90;;;;;;5081842;28;20240;-86
2021/09/01 05:32:29;;;;;;;4.95;4.53;;;11.90;99.90;;;;;;5079916;28;20317;-85
2021/09/01 05:34:59;;;;;;;7.43;4.75;;;11.90;99.90;;;;;;5082523;28;20285;-86
2021/09/01 05:37:26;;;;;;;5.13;4.40;;;12.00;99.90;;;;;;5083848;28;20280;-86
2021/09/01 05:39:57;;;;;;;4.75;4.35;;;12.10;99.90;;;;;;5084843;28;20280;-92
2021/09/01 05:42:26;;;;;;;6.20;4.80;;;12.20;99.90;;;;;;5086911;28;20221;-86
2021/09/01 05:44:56;;;;;;;15.93;5.55;;;12.20;99.90;;;;;;5084292;28;20289;-87
2021/09/01 05:47:25;;;;;;;5.10;4.60;;;12.30;99.90;;;;;;5088155;28;20267;-85
2021/09/01 05:50:04;;;;;;;11.57;5.57;;;12.40;99.90;;;;;;5080406;28;20225;-85
2021/09/01 05:52:32;;;;;;;5.00;4.60;;;12.50;99.90;;;;;;5087160;28;20185;-85
2021/09/01 05:55:04;;;;;;;5.22;4.72;;;12.50;99.90;;;;;;5088710;28;20278;-86
2021/09/01 05:57:35;;;;;;;5.32;4.82;;;12.50;99.90;;;;;;5089974;28;20194;-88
2021/09/01 06:00:18;;;;;;;7.18;5.40;;;12.60;99.90;;;;;;5081511;28;20313;-88
2021/09/01 06:03:18;;;;;;;5.68;5.15;;;12.60;99.90;;;;;;5094865;28;20192;-88
2021/09/01 06:08:47;;;;;;;6.13;5.53;;;12.80;99.90;;;;;;5058087;28;20221;-88
2021/09/01 06:14:08;;;;;;;6.15;5.63;;;12.80;99.90;;;;;;5083910;28;20285;-87
2021/09/01 06:16:37;;;;;;;7.88;7.07;;;12.80;99.90;;;;;;5089800;28;20213;-88
2021/09/01 06:19:07;;;;;;;8.15;6.90;;;12.80;99.90;;;;;;5089180;28;20657;-88
2021/09/01 06:21:51;;;;;;;7.82;6.95;;;12.80;99.90;;;;;;5076606;28;20210;-89
2021/09/01 06:24:21;;;;;;;7.32;6.63;;;12.80;99.90;;;;;;5088102;28;20236;-88
2021/09/01 06:27:08;;;;;;;7.68;6.88;;;12.80;99.90;;;;;;5090320;28;20280;-88
2021/09/01 06:29:38;;;;;;;7.78;7.07;;;12.90;99.90;;;;;;5092532;28;20661;-87
2021/09/01 06:32:08;;;;;;;9.27;7.45;;;13.00;99.90;;;;;;5071848;28;20252;-87
2021/09/01 06:37:16;;;;;;;9.35;8.38;;;13.20;99.90;;;;;;5077871;28;20208;-88
2021/09/01 06:39:43;;;;;;;7.93;7.10;;;13.30;99.90;;;;;;5073589;28;20298;-88
2021/09/01 06:42:10;;;;;;;10.93;8.68;;;13.30;99.90;;;;;;5086043;28;20227;-88
2021/09/01 06:44:38;;;;;;;11.55;8.73;;;13.40;99.90;;;;;;5071598;28;20305;-88
2021/09/01 06:47:07;;;;;;;10.65;9.05;;;13.50;99.90;;;;;;5071442;28;20201;-86
2021/09/01 06:49:34;;;;;;;11.30;9.35;;;13.50;99.90;;;;;;5074726;28;20221;-89
2021/09/01 06:52:01;;;;;;;10.90;9.80;;;13.60;99.90;;;;;;5076789;28;20251;-87
2021/09/01 06:54:28;;;;;;;13.45;11.38;;;13.80;99.90;;;;;;5072423;28;20255;-88
2021/09/01 06:56:55;;;;;;;13.48;10.30;;;13.80;99.90;;;;;;5075150;28;20284;-87
2021/09/01 06:59:22;;;;;;;13.35;10.90;;;13.90;99.90;;;;;;5064561;28;20566;-86
2021/09/01 07:01:49;;;;;;;13.68;11.05;;;14.10;99.90;;;;;;5071369;28;20209;-86
2021/09/01 07:04:17;;;;;;;11.63;9.77;;;14.10;99.90;;;;;;5062620;28;20217;-86
2021/09/01 07:06:44;;;;;;;12.65;11.02;;;14.10;99.90;;;;;;5068090;28;20296;-89
2021/09/01 07:09:11;;;;;;;12.40;10.50;;;14.20;99.70;;;;;;5064825;28;20259;-87
2021/09/01 07:11:38;;;;;;;11.70;10.35;;;14.30;99.50;;;;;;5060250;28;20217;-89
2021/09/01 07:14:06;;;;;;;10.52;9.43;;;14.30;99.00;;;;;;5058741;28;20326;-89
2021/09/01 07:16:33;;;;;;;14.65;9.63;;;14.40;98.70;;;;;;5069201;28;20649;-90
2021/09/01 07:19:00;;;;;;;9.82;8.77;;;14.50;98.50;;;;;;5065037;28;20221;-90
2021/09/01 07:21:29;;;;;;;11.65;9.32;;;14.60;98.40;;;;;;5067622;28;20189;-89
2021/09/01 07:23:56;;;;;;;9.00;8.07;;;14.60;98.40;;;;;;5060274;28;20228;-89
2021/09/01 07:26:23;;;;;;;12.70;9.82;;;14.70;97.50;;;;;;5059700;28;20259;-89
2021/09/01 07:28:50;;;;;;;10.70;8.68;;;14.90;97.30;;;;;;5064271;28;20605;-89
2021/09/01 07:31:17;;;;;;;10.70;8.25;;;15.00;96.90;;;;;;5066935;28;20217;-86
2021/09/01 07:33:44;;;;;;;10.52;8.00;;;15.00;96.90;;;;;;5062927;28;20704;-89
2021/09/01 07:36:11;;;;;;;12.32;8.65;;;15.20;96.10;;;;;;5063967;28;20193;-87
2021/09/01 07:38:40;;;;;;;9.88;8.15;;;15.40;94.70;;;;;;5073635;28;20267;-87
2021/09/01 07:41:06;;;;;;;8.77;7.85;;;15.70;93.10;;;;;;5069191;28;20205;-86
2021/09/01 07:43:33;;;;;;;11.50;7.82;;;16.10;91.70;;;;;;5071453;28;20288;-87
2021/09/01 07:46:00;;;;;;;9.88;8.35;;;16.50;91.10;;;;;;5068265;28;20723;-88
2021/09/01 07:48:27;;;;;;;9.52;7.85;;;16.70;90.00;;;;;;5059514;28;20232;-87
2021/09/01 07:50:54;;;;;;;8.75;7.82;;;17.30;86.80;;;;;;5058326;28;20232;-86
2021/09/01 07:53:21;;;;;;;10.80;6.88;;;17.80;83.80;;;;;;5059256;28;20579;-88
2021/09/01 07:55:49;;;;;;;7.85;6.88;;;18.20;81.30;;;;;;5072836;28;20695;-83
2021/09/01 07:58:16;;;;;;;10.18;6.93;;;18.50;79.30;;;;;;5078156;28;20197;-85
2021/09/01 08:00:43;;;;;;;9.02;7.38;;;18.80;71.60;;;;;;5078193;28;20274;-85
2021/09/01 08:03:10;;;;;;;8.23;6.97;;;18.80;68.60;;;;;;5080351;28;20201;-85
2021/09/01 08:05:38;;;;;;;9.60;6.93;;;18.80;69.00;;;;;;5071351;28;20213;-88
2021/09/01 08:08:05;;;;;;;8.70;7.80;;;18.90;69.30;;;;;;5080635;28;20562;-85
2021/09/01 08:10:35;;;;;;;8.20;7.40;;;18.70;67.80;;;;;;5063722;28;20219;-86
2021/09/01 08:13:04;;;;;;;10.05;8.38;;;18.20;73.80;;;;;;5068057;28;20648;-85
2021/09/01 08:15:31;;;;;;;11.30;8.55;;;17.80;76.40;;;;;;5067687;28;20218;-86
2021/09/01 08:17:58;;;;;;;9.07;8.18;;;17.30;78.90;;;;;;5073841;28;20827;-85
2021/09/01 08:20:25;;;;;;;9.93;7.80;;;17.10;78.80;;;;;;5073322;28;20236;-85
2021/09/01 08:22:52;;;;;;;10.70;7.85;;;16.80;82.90;;;;;;5073001;28;20223;-89
2021/09/01 08:25:19;;;;;;;8.52;7.63;;;16.60;86.00;;;;;;5063620;28;20243;-89
2021/09/01 08:27:47;;;;;;;9.82;8.02;;;16.60;87.10;;;;;;5073289;28;20216;-89
2021/09/01 08:30:16;;;;;;;8.43;7.55;;;16.50;86.60;;;;;;5073025;28;20221;-90
2021/09/01 08:32:43;;;;;;;10.95;7.85;;;16.40;87.90;;;;;;5073505;28;20274;-91
2021/09/01 08:35:11;;;;;;;11.60;8.57;;;16.30;89.70;;;;;;5074736;28;20227;-87
2021/09/01 08:37:38;;;;;;;8.75;7.38;;;16.30;90.60;;;;;;5073071;28;20244;-86
2021/09/01 08:40:07;;;;;;;9.45;7.35;;;16.40;90.10;;;;;;5078538;28;20225;-89
2021/09/01 08:42:34;;;;;;;7.57;6.82;;;16.60;86.70;;;;;;5077394;28;20197;-89
2021/09/01 08:45:02;;;;;;;8.88;7.97;;;16.70;78.50;;;;;;5078894;28;20718;-92
2021/09/01 08:47:32;;;;;;;11.38;7.72;;;16.90;78.60;;;;;;5078943;28;20204;-88
2021/09/01 08:49:59;;;;;;;8.43;7.63;;;16.90;77.60;;;;;;5073162;28;20243;-88
2021/09/01 08:52:26;;;;;;;9.40;7.47;;;17.00;76.50;;;;;;5066315;28;20256;-88
2021/09/01 08:54:54;;;;;;;7.63;6.45;;;17.40;79.00;;;;;;5073950;28;20768;-89
2021/09/01 08:57:21;;;;;;;9.30;7.55;;;17.80;76.30;;;;;;5075371;28;20193;-89
2021/09/01 08:59:48;;;;;;;8.13;6.70;;;18.30;70.10;;;;;;5074594;28;20243;-91
2021/09/01 09:02:15;;;;;;;8.40;6.95;;;18.10;72.60;;;;;;5076222;28;20300;-87
2021/09/01 09:04:44;;;;;;;6.80;6.13;;;18.40;65.70;;;;;;5074371;28;20227;-88
2021/09/01 09:07:11;;;;;;;6.97;6.20;;;18.70;60.90;;;;;;5073312;28;20675;-84
2021/09/01 09:09:40;;;;;;;6.90;6.20;;;19.20;56.70;;;;;;5073743;28;20564;-85
2021/09/01 09:12:08;;;;;;;6.00;5.47;;;20.40;50.60;;;;;;5069399;28;20274;-82
2021/09/01 09:14:38;;;;;;;8.40;6.20;;;21.30;41.40;;;;;;5072785;28;20217;-81
2021/09/01 09:17:09;;;;;;;5.97;5.47;;;22.00;39.40;;;;;;5078670;28;20539;-83
2021/09/01 09:19:49;;;;;;;8.50;6.75;;;23.90;35.30;;;;;;5068379;28;20364;-85
2021/09/01 09:22:21;;;;;;;6.57;5.97;;;25.50;28.70;;;;;;5068236;28;20196;-83
2021/09/01 09:25:14;;;;;;;6.82;5.88;;;27.00;26.10;;;;;;5071152;28;20590;-86
2021/09/01 09:27:47;;;;;;;7.47;6.78;;;28.90;20.00;;;;;;5058491;28;20209;-86
2021/09/01 09:30:39;;;;;;;7.15;6.55;;;29.20;18.00;;;;;;5066027;28;20252;-87
2021/09/01 09:33:12;;;;;;;6.75;6.15;;;27.30;20.90;;;;;;5068655;28;20314;-87
2021/09/01 09:36:02;;;;;;;7.82;5.53;;;25.90;24.30;;;;;;5074230;28;20895;-82
2021/09/01 09:38:35;;;;;;;9.07;5.90;;;25.90;25.00;;;;;;5065286;28;20243;-84
2021/09/01 09:41:04;;;;;;;6.78;6.18;;;26.40;24.60;;;;;;5071821;28;20208;-83
2021/09/01 09:43:31;;;;;;;6.60;6.00;;;26.70;22.10;;;;;;5080866;28;20200;-84
2021/09/01 09:46:08;;;;;;;7.53;6.60;;;28.10;20.30;;;;;;5078308;28;20189;-84
2021/09/01 09:48:36;;;;;;;6.90;6.20;;;29.20;16.20;;;;;;5084567;28;20189;-83
2021/09/01 09:51:06;;;;;;;6.68;5.75;;;29.30;16.30;;;;;;5081483;28;20207;-82
2021/09/01 09:53:35;;;;;;;6.18;5.68;;;30.00;16.20;;;;;;5078346;28;20197;-83
2021/09/01 09:56:11;;;;;;;6.57;6.07;;;30.50;15.10;;;;;;5066970;28;20261;-84
2021/09/01 09:58:40;;;;;;;6.85;6.25;;;30.30;16.30;;;;;;5068958;28;20406;-85
2021/09/01 10:01:09;;;;;;;6.10;5.65;;;28.80;16.00;;;;;;5073064;28;20200;-84
2021/09/01 10:03:37;;;;;;;7.10;6.40;;;27.80;17.30;;;;;;5056840;28;20197;-82
2021/09/01 10:06:07;;;;;;;6.45;5.88;;;26.10;20.00;;;;;;5061469;28;20242;-82
2021/09/01 10:08:36;;;;;;;6.07;5.57;;;24.70;22.50;;;;;;5060078;28;20197;-84
2021/09/01 10:11:04;;;;;;;5.97;5.43;;;23.70;26.40;;;;;;5066305;28;20193;-86
2021/09/01 10:13:32;;;;;;;6.38;5.88;;;24.00;24.50;;;;;;5073727;28;20614;-84
2021/09/01 10:16:04;;;;;;;7.32;5.82;;;23.40;24.90;;;;;;5074183;28;20295;-85
2021/09/01 10:18:33;;;;;;;6.78;5.50;;;22.30;27.70;;;;;;5075370;28;20628;-83
2021/09/01 10:21:02;;;;;;;6.90;5.07;;;21.40;30.60;;;;;;5076783;28;20193;-85
2021/09/01 10:23:53;;;;;;;6.15;5.20;;;21.10;30.00;;;;;;5067987;28;20200;-82
2021/09/01 10:26:22;;;;;;;7.57;5.15;;;21.80;33.60;;;;;;5069000;28;20189;-84
2021/09/01 10:28:49;;;;;;;5.93;5.35;;;23.00;31.70;;;;;;5073107;28;20339;-82
2021/09/01 10:31:21;;;;;;;5.75;4.75;;;24.20;26.10;;;;;;5074782;28;20197;-83
2021/09/01 10:33:51;;;;;;;6.00;4.53;;;24.90;24.40;;;;;;5073133;28;20605;-83
2021/09/01 10:36:39;;;;;;;5.22;4.72;;;24.50;24.00;;;;;;5067388;28;20194;-82
2021/09/01 10:39:36;;;;;;;5.65;4.93;;;24.60;24.90;;;;;;5070893;28;20706;-83
2021/09/01 10:42:38;;;;;;;5.90;5.25;;;25.50;21.40;;;;;;5070546;28;20212;-85
2021/09/01 10:45:14;;;;;;;5.28;4.65;;;24.20;22.80;;;;;;5063849;28;20220;-82
2021/09/01 10:48:14;;;;;;;6.07;5.47;;;24.90;22.60;;;;;;5071104;28;20670;-84
2021/09/01 10:50:44;;;;;;;5.95;5.45;;;24.40;22.70;;;;;;5072857;28;20251;-84
2021/09/01 10:53:19;;;;;;;5.68;5.18;;;23.50;25.60;;;;;;5071527;28;20582;-84
2021/09/01 10:55:53;;;;;;;6.78;5.22;;;22.60;29.90;;;;;;5067667;28;20621;-82
2021/09/01 10:58:26;;;;;;;5.30;4.80;;;21.90;30.80;;;;;;5065368;28;20194;-81
2021/09/01 11:00:56;;;;;;;5.05;4.57;;;21.20;33.10;;;;;;5065585;28;20202;-83
2021/09/01 11:03:34;;;;;;;11.10;5.13;;;20.70;33.20;;;;;;5071444;28;20198;-82
2021/09/01 11:06:19;;;;;;;7.40;5.13;;;20.10;32.20;;;;;;5072073;28;20196;-87
2021/09/01 11:09:08;;;;;;;5.80;5.20;;;19.90;32.00;;;;;;5071647;28;20233;-85
2021/09/01 11:11:57;;;;;;;5.53;4.70;;;19.80;31.90;;;;;;5066845;28;20196;-85
2021/09/01 11:14:37;;;;;;;5.38;4.88;;;20.20;35.90;;;;;;5065978;28;20684;-86
2021/09/01 11:17:10;;;;;;;4.88;4.40;;;20.70;33.50;;;;;;5069230;28;20205;-85
2021/09/01 11:19:38;;;;;;;5.65;5.03;;;21.00;35.30;;;;;;5057102;28;20222;-85
2021/09/01 11:22:07;;;;;;;5.50;4.70;;;21.50;33.30;;;;;;5070915;28;20225;-85
2021/09/01 11:24:44;;;;;;;4.95;4.47;;;21.90;33.10;;;;;;5074661;28;20274;-85
2021/09/01 11:27:14;;;;;;;9.73;4.57;;;21.90;29.70;;;;;;5072122;28;20256;-85
2021/09/01 11:29:42;;;;;;;5.60;5.00;;;21.70;33.50;;;;;;5069200;28;20262;-85
2021/09/01 11:32:09;;;;;;;6.10;5.00;;;21.10;29.60;;;;;;5080997;28;20315;-85
2021/09/01 11:34:36;;;;;;;5.90;4.57;;;20.50;32.50;;;;;;5076744;28;20231;-85
2021/09/01 11:37:03;;;;;;;5.07;4.57;;;20.20;32.20;;;;;;5071955;28;20201;-85
2021/09/01 11:39:30;;;;;;;6.13;4.93;;;20.40;35.90;;;;;;5073707;28;20222;-84
2021/09/01 11:41:59;;;;;;;5.47;4.38;;;20.80;32.70;;;;;;5076503;28;20223;-85
2021/09/01 11:44:27;;;;;;;4.75;4.35;;;20.70;30.90;;;;;;5070145;28;20236;-84
2021/09/01 11:46:55;;;;;;;5.93;4.88;;;20.70;32.60;;;;;;5069552;28;20193;-86
2021/09/01 11:49:22;;;;;;;6.32;4.97;;;20.80;32.50;;;;;;5066826;28;20229;-86
2021/09/01 11:51:51;;;;;;;6.03;4.75;;;20.50;30.20;;;;;;5072287;28;20201;-86
2021/09/01 11:54:19;;;;;;;6.13;4.20;;;20.40;32.40;;;;;;5063094;28;20225;-86
2021/09/01 11:56:47;;;;;;;4.88;4.22;;;20.60;32.20;;;;;;5064795;28;20658;-86
2021/09/01 11:59:15;;;;;;;4.75;4.25;;;20.90;29.70;;;;;;5076002;28;20229;-87
2021/09/01 12:01:50;;;;;;;4.90;4.40;;;21.10;30.20;;;;;;5065933;28;20276;-86
2021/09/01 12:04:18;;;;;;;5.30;4.80;;;21.10;31.00;;;;;;5070550;28;20630;-87
2021/09/01 12:06:47;;;;;;;7.80;5.90;;;21.10;33.00;;;;;;5068059;28;20201;-87
2021/09/01 12:09:15;;;;;;;7.13;4.82;;;21.20;31.80;;;;;;5074783;28;20281;-86
2021/09/01 12:11:51;;;;;;;5.35;4.47;;;21.60;30.80;;;;;;5072576;28;20292;-86
2021/09/01 12:14:22;;;;;;;7.20;4.55;;;21.50;31.70;;;;;;5066510;28;20231;-87
2021/09/01 12:16:52;;;;;;;5.35;4.30;;;21.10;33.00;;;;;;5074638;28;20205;-87
2021/09/01 12:19:20;;;;;;;7.07;4.45;;;20.90;32.80;;;;;;5066478;28;20217;-87
2021/09/01 12:21:52;;;;;;;4.95;4.45;;;20.70;32.60;;;;;;5076714;28;20197;-87
2021/09/01 12:24:23;;;;;;;5.25;4.43;;;20.60;32.50;;;;;;5072185;28;20225;-87
2021/09/01 12:26:59;;;;;;;6.45;4.47;;;20.60;32.50;;;;;;5078735;28;20616;-86
2021/09/01 12:29:32;;;;;;;5.47;4.82;;;20.80;32.70;;;;;;5077639;28;20303;-86
2021/09/01 12:32:01;;;;;;;5.65;4.00;;;20.60;32.50;;;;;;5079766;28;20202;-86
2021/09/01 12:34:31;;;;;;;4.63;4.20;;;20.50;32.50;;;;;;5081593;28;20285;-87
2021/09/01 12:37:01;;;;;;;4.97;4.47;;;20.40;32.40;;;;;;5083779;28;20201;-86
2021/09/01 12:39:28;;;;;;;5.38;4.32;;;20.60;34.60;;;;;;5075333;28;20308;-87
2021/09/01 12:41:55;;;;;;;4.45;3.72;;;20.60;32.50;;;;;;5078295;28;20236;-87
2021/09/01 12:44:22;;;;;;;4.80;4.30;;;20.60;31.30;;;;;;5074152;28;20680;-86
2021/09/01 12:46:50;;;;;;;5.60;4.70;;;20.60;32.50;;;;;;5076560;28;20201;-86
2021/09/01 12:49:26;;;;;;;5.82;4.20;;;20.60;29.90;;;;;;5076479;28;20224;-87
2021/09/01 12:51:53;;;;;;;4.25;3.85;;;20.60;29.80;;;;;;5069296;28;20201;-87
2021/09/01 12:54:23;;;;;;;4.78;4.28;;;20.60;32.50;;;;;;5071883;28;20229;-86
2021/09/01 12:56:51;;;;;;;4.38;3.97;;;20.60;29.60;;;;;;5077940;28;20728;-87
2021/09/01 12:59:18;;;;;;;6.05;3.88;;;20.70;32.60;;;;;;5077276;28;20221;-86
2021/09/01 13:01:45;;;;;;;4.75;4.22;;;20.60;31.70;;;;;;5076565;28;20197;-85
2021/09/01 13:04:12;;;;;;;5.00;4.50;;;20.50;28.40;;;;;;5081083;28;20782;-83
2021/09/01 13:06:41;;;;;;;4.97;4.18;;;20.30;29.00;;;;;;5083415;28;20265;-84
2021/09/01 13:09:08;;;;;;;5.13;4.20;;;20.20;32.30;;;;;;5073625;28;20224;-83
2021/09/01 13:11:34;;;;;;;5.10;4.40;;;20.20;30.10;;;;;;5082916;28;20229;-84